Time;durP1;ratioP1;P1;durP2;ratioP2;P2;SDS_P1;SDS_P2;PMS_P1;PMS_P2;Temp;Humidity;BMP_temperature;BMP_pressure;BME280_temperature;BME280_humidity;BME280_pressure;Samples;Min_cycle;Max_cycle;Signal;HPM_P1;HPM_P2
2022/03/15 00:00:43;;;;;;;15.60;10.75;;;4.90;99.90;;;;;;5049416;28;20056;-51
2022/03/15 00:03:09;;;;;;;13.23;9.83;;;4.90;99.90;;;;;;5040805;28;20038;-51
2022/03/15 00:05:34;;;;;;;14.73;8.90;;;4.90;99.90;;;;;;5036698;28;20076;-51
2022/03/15 00:08:00;;;;;;;15.23;9.53;;;5.00;99.90;;;;;;5034089;28;20486;-49
2022/03/15 00:10:26;;;;;;;17.45;9.13;;;5.00;99.90;;;;;;5030816;28;20049;-50
2022/03/15 00:12:54;;;;;;;;;;;5.00;99.90;;;;;;5031702;28;20048;-51
2022/03/15 00:15:20;;;;;;;21.98;8.73;;;4.90;99.90;;;;;;5038135;28;19920;-49
2022/03/15 00:17:47;;;;;;;11.57;7.90;;;4.90;99.90;;;;;;5030789;28;20052;-52
2022/03/15 00:20:17;;;;;;;10.32;7.75;;;4.90;99.90;;;;;;5047874;28;20041;-50
2022/03/15 00:22:43;;;;;;;14.88;9.68;;;4.80;99.90;;;;;;5049037;28;20077;-51
2022/03/15 00:25:11;;;;;;;16.03;9.63;;;4.90;99.90;;;;;;5041462;28;20517;-52
2022/03/15 00:27:37;;;;;;;10.02;6.05;;;4.90;99.90;;;;;;5029127;28;20041;-48
2022/03/15 00:30:05;;;;;;;11.68;6.80;;;4.90;99.90;;;;;;5029998;28;20428;-50
2022/03/15 00:32:31;;;;;;;17.38;9.23;;;4.80;99.90;;;;;;5030021;28;20037;-51
2022/03/15 00:34:57;;;;;;;14.10;8.75;;;4.80;99.90;;;;;;5033106;28;20449;-48
2022/03/15 00:37:23;;;;;;;17.90;10.07;;;4.70;99.90;;;;;;5045199;28;20120;-50
2022/03/15 00:39:49;;;;;;;24.67;12.55;;;4.60;99.90;;;;;;5039372;28;20041;-51
2022/03/15 00:42:15;;;;;;;23.00;11.73;;;4.70;99.90;;;;;;5029478;28;20534;-49
2022/03/15 00:44:41;;;;;;;22.53;11.43;;;4.70;99.90;;;;;;5043980;28;20045;-48
2022/03/15 00:47:06;;;;;;;29.27;14.83;;;4.70;99.90;;;;;;5039846;28;20491;-53
2022/03/15 00:49:32;;;;;;;32.95;16.90;;;4.80;99.90;;;;;;5034668;28;20366;-47
2022/03/15 00:51:58;;;;;;;31.15;14.60;;;4.80;99.90;;;;;;5049141;28;20102;-48
2022/03/15 00:54:23;;;;;;;23.93;11.87;;;4.80;99.90;;;;;;5035439;28;20491;-50
2022/03/15 00:56:50;;;;;;;14.87;8.57;;;4.80;99.90;;;;;;5029242;28;20099;-50
2022/03/15 00:59:15;;;;;;;;;;;4.80;99.90;;;;;;5033068;28;20040;-50
2022/03/15 01:01:42;;;;;;;14.45;9.27;;;4.80;99.90;;;;;;5048758;28;19971;-48
2022/03/15 01:04:08;;;;;;;16.33;9.05;;;4.80;99.90;;;;;;5049041;28;20069;-51
2022/03/15 01:06:38;;;;;;;10.98;7.72;;;4.80;99.90;;;;;;5032777;28;20072;-49
2022/03/15 01:09:04;;;;;;;18.35;10.07;;;4.80;99.90;;;;;;5045578;28;20098;-48
2022/03/15 01:11:30;;;;;;;9.77;7.18;;;4.80;99.90;;;;;;5032890;28;20037;-47
2022/03/15 01:13:56;;;;;;;12.15;8.57;;;4.80;99.90;;;;;;5038266;28;20395;-50
2022/03/15 01:16:22;;;;;;;15.67;7.37;;;4.80;99.90;;;;;;5051349;28;20433;-49
2022/03/15 01:18:47;;;;;;;10.67;7.80;;;4.80;99.90;;;;;;5051769;28;20338;-51
2022/03/15 01:21:14;;;;;;;12.10;9.97;;;4.70;99.90;;;;;;5041344;28;20037;-51
2022/03/15 01:23:42;;;;;;;;;;;4.70;99.90;;;;;;5053252;28;20303;-50
2022/03/15 01:26:08;;;;;;;19.95;10.45;;;4.70;99.90;;;;;;5035797;28;19920;-52
2022/03/15 01:28:34;;;;;;;28.08;11.73;;;4.70;99.90;;;;;;5034250;28;20121;-50
2022/03/15 01:31:00;;;;;;;10.07;7.17;;;4.70;99.90;;;;;;5046824;28;20499;-49
2022/03/15 01:33:26;;;;;;;9.57;8.27;;;4.60;99.90;;;;;;5051474;28;20633;-48
2022/03/15 01:35:52;;;;;;;12.30;7.28;;;4.60;99.90;;;;;;5046974;28;20037;-51
2022/03/15 01:38:17;;;;;;;5.43;4.95;;;4.50;99.90;;;;;;5047786;28;20450;-49
2022/03/15 01:40:43;;;;;;;4.63;4.17;;;4.50;99.90;;;;;;5048111;28;20049;-52
2022/03/15 01:43:09;;;;;;;7.03;3.40;;;4.40;99.90;;;;;;5051978;28;20572;-53
2022/03/15 01:45:39;;;;;;;5.75;5.20;;;4.40;99.90;;;;;;5043938;28;20390;-53
2022/03/15 01:48:07;;;;;;;7.22;3.97;;;4.40;99.90;;;;;;5033558;28;20077;-49
2022/03/15 01:50:34;;;;;;;10.68;6.07;;;4.40;99.90;;;;;;5034245;28;20042;-51
2022/03/15 01:53:00;;;;;;;7.40;5.50;;;4.40;99.90;;;;;;5032312;28;20067;-50
2022/03/15 01:55:26;;;;;;;12.37;8.57;;;4.30;99.90;;;;;;5037590;28;20642;-52
2022/03/15 01:57:51;;;;;;;7.05;5.88;;;4.30;99.90;;;;;;5052233;28;20041;-51
2022/03/15 02:00:18;;;;;;;13.73;8.90;;;4.30;99.90;;;;;;5047156;28;20360;-52
2022/03/15 02:02:45;;;;;;;10.98;8.70;;;4.30;99.90;;;;;;5032433;28;20045;-49
2022/03/15 02:05:11;;;;;;;;;;;4.40;99.90;;;;;;5034091;28;20044;-53
2022/03/15 02:07:38;;;;;;;8.00;6.18;;;4.30;99.90;;;;;;5039865;28;19921;-50
2022/03/15 02:10:04;;;;;;;;;;;4.30;99.90;;;;;;5045697;28;20065;-51
2022/03/15 02:12:29;;;;;;;13.00;8.45;;;4.30;99.90;;;;;;5032224;28;20011;-51
2022/03/15 02:15:01;;;;;;;12.57;8.47;;;4.30;99.90;;;;;;5042692;28;20171;-50
2022/03/15 02:17:27;;;;;;;14.02;7.72;;;4.30;99.90;;;;;;5032621;28;20048;-50
2022/03/15 02:19:53;;;;;;;12.43;8.70;;;4.30;99.90;;;;;;5032905;28;20045;-51
2022/03/15 02:22:19;;;;;;;11.38;7.78;;;4.30;99.90;;;;;;5032555;28;20396;-51
2022/03/15 02:24:45;;;;;;;9.98;6.28;;;4.30;99.90;;;;;;5031906;28;20487;-50
2022/03/15 02:27:11;;;;;;;11.70;6.22;;;4.30;99.90;;;;;;5046539;28;20445;-52
2022/03/15 02:29:37;;;;;;;9.07;6.45;;;4.30;99.90;;;;;;5051684;28;20072;-49
2022/03/15 02:32:04;;;;;;;11.83;7.17;;;4.30;99.90;;;;;;5036071;28;20061;-48
2022/03/15 02:34:29;;;;;;;16.75;8.65;;;4.30;99.90;;;;;;5034263;28;20048;-51
2022/03/15 02:36:55;;;;;;;13.27;7.83;;;4.30;99.90;;;;;;5036769;28;20465;-53
2022/03/15 02:39:21;;;;;;;10.57;7.93;;;4.30;99.90;;;;;;5035333;28;20040;-49
2022/03/15 02:41:47;;;;;;;30.00;8.98;;;4.30;99.90;;;;;;5048740;28;20127;-52
2022/03/15 02:44:13;;;;;;;9.13;5.50;;;4.20;99.90;;;;;;5051489;28;20124;-51
2022/03/15 02:46:39;;;;;;;9.83;6.43;;;4.10;99.90;;;;;;5035750;28;20592;-51
2022/03/15 02:49:06;;;;;;;11.27;7.20;;;4.00;99.90;;;;;;5031435;28;20398;-50
2022/03/15 02:51:32;;;;;;;10.32;7.78;;;3.90;99.90;;;;;;5035300;28;20532;-52
2022/03/15 02:53:59;;;;;;;18.35;13.27;;;3.80;99.90;;;;;;5051071;28;20041;-51
2022/03/15 02:56:25;;;;;;;15.32;9.80;;;3.70;99.90;;;;;;5033770;28;20037;-47
2022/03/15 02:58:50;;;;;;;17.83;9.67;;;3.70;99.90;;;;;;5031163;28;20518;-53
2022/03/15 03:01:16;;;;;;;15.47;9.60;;;3.70;99.90;;;;;;5032366;28;20044;-50
2022/03/15 03:03:42;;;;;;;15.37;8.73;;;3.70;99.90;;;;;;5048297;28;20567;-51
2022/03/15 03:06:07;;;;;;;14.93;8.73;;;3.70;99.90;;;;;;5039325;28;20048;-53
2022/03/15 03:08:34;;;;;;;30.60;9.70;;;3.70;99.90;;;;;;5031058;28;20554;-51
2022/03/15 03:11:00;;;;;;;18.70;10.73;;;3.70;99.90;;;;;;5031128;28;20045;-53
2022/03/15 03:13:26;;;;;;;18.50;9.48;;;3.60;99.90;;;;;;5049443;28;20574;-50
2022/03/15 03:15:57;;;;;;;17.20;10.07;;;3.60;99.90;;;;;;5039497;28;20163;-52
2022/03/15 03:18:28;;;;;;;17.80;10.05;;;3.70;99.90;;;;;;5047876;28;20493;-50
2022/03/15 03:20:54;;;;;;;17.50;10.85;;;3.70;99.90;;;;;;5049114;28;20540;-50
2022/03/15 03:23:20;;;;;;;21.70;10.98;;;3.70;99.90;;;;;;5033860;28;20041;-49
2022/03/15 03:25:46;;;;;;;19.38;10.68;;;3.80;99.90;;;;;;5034658;28;20037;-51
2022/03/15 03:28:14;;;;;;;14.23;9.65;;;3.80;99.90;;;;;;5035229;28;20728;-52
2022/03/15 03:30:47;;;;;;;16.40;9.38;;;3.80;99.90;;;;;;5030758;28;20037;-49
2022/03/15 03:33:14;;;;;;;14.02;10.07;;;3.80;99.90;;;;;;5059450;28;20037;-53
2022/03/15 03:35:39;;;;;;;14.70;9.90;;;3.80;99.90;;;;;;5031714;28;20037;-53
2022/03/15 03:38:05;;;;;;;16.50;11.87;;;3.90;99.90;;;;;;5040983;28;20503;-52
2022/03/15 03:40:32;;;;;;;21.63;13.52;;;3.90;99.90;;;;;;5049193;28;20051;-51
2022/03/15 03:42:57;;;;;;;;;;;3.90;99.90;;;;;;5047663;28;20076;-50
2022/03/15 03:45:23;;;;;;;24.65;12.20;;;3.90;99.90;;;;;;5048068;28;19921;-49
2022/03/15 03:47:49;;;;;;;23.73;12.40;;;3.90;99.90;;;;;;5039037;28;20076;-52
2022/03/15 03:50:14;;;;;;;14.57;9.87;;;3.80;99.90;;;;;;5049552;28;20305;-52
2022/03/15 03:52:40;;;;;;;18.43;9.73;;;3.80;99.90;;;;;;5047839;28;20036;-49
2022/03/15 03:55:06;;;;;;;17.87;11.17;;;3.70;99.90;;;;;;5050118;28;20043;-50
2022/03/15 03:57:31;;;;;;;18.33;10.57;;;3.70;99.90;;;;;;5041289;28;20091;-50
2022/03/15 03:59:57;;;;;;;28.73;12.57;;;3.80;99.90;;;;;;5035893;28;20044;-51
2022/03/15 04:02:22;;;;;;;28.43;14.10;;;3.80;99.90;;;;;;5036506;28;20037;-53
2022/03/15 04:04:50;;;;;;;25.73;13.70;;;3.80;99.90;;;;;;5030347;28;20092;-53
2022/03/15 04:07:16;;;;;;;24.38;12.93;;;3.80;99.90;;;;;;5043668;28;20083;-51
2022/03/15 04:09:41;;;;;;;16.70;11.40;;;3.70;99.90;;;;;;5030327;28;20065;-51
2022/03/15 04:12:07;;;;;;;21.97;10.53;;;3.70;99.90;;;;;;5030302;28;20123;-50
2022/03/15 04:14:36;;;;;;;15.93;10.13;;;3.70;99.90;;;;;;5044307;28;20065;-50
2022/03/15 04:17:05;;;;;;;17.85;10.38;;;3.70;99.90;;;;;;5044871;28;20288;-53
2022/03/15 04:19:31;;;;;;;18.90;11.13;;;3.70;99.90;;;;;;5046377;28;20121;-49
2022/03/15 04:21:57;;;;;;;20.63;12.73;;;3.70;99.90;;;;;;5030175;28;20465;-49
2022/03/15 04:24:22;;;;;;;22.30;12.70;;;3.70;99.90;;;;;;5037941;28;20032;-50
2022/03/15 04:26:48;;;;;;;27.83;12.30;;;3.70;99.90;;;;;;5049532;28;20348;-53
2022/03/15 04:29:14;;;;;;;24.10;11.90;;;3.70;99.90;;;;;;5037631;28;20033;-50
2022/03/15 04:31:39;;;;;;;22.55;13.40;;;3.70;99.90;;;;;;5037061;28;20409;-52
2022/03/15 04:34:05;;;;;;;21.02;13.70;;;3.70;99.90;;;;;;5037061;28;20034;-50
2022/03/15 04:36:31;;;;;;;17.40;10.38;;;3.80;99.90;;;;;;5046845;28;20033;-52
2022/03/15 04:38:58;;;;;;;17.88;10.52;;;3.80;99.90;;;;;;5040808;28;20041;-52
2022/03/15 04:41:24;;;;;;;16.63;11.88;;;3.80;99.90;;;;;;5033799;28;20417;-50
2022/03/15 04:43:50;;;;;;;24.03;12.23;;;3.80;99.90;;;;;;5043115;28;20033;-51
2022/03/15 04:46:15;;;;;;;24.93;14.07;;;3.90;99.90;;;;;;5046450;28;20048;-50
2022/03/15 04:48:42;;;;;;;29.57;15.67;;;3.90;99.90;;;;;;5034776;28;20562;-51
2022/03/15 04:51:08;;;;;;;21.65;12.90;;;3.90;99.90;;;;;;5033810;28;20276;-49
2022/03/15 04:53:33;;;;;;;29.95;17.52;;;3.90;99.90;;;;;;5040047;28;20040;-51
2022/03/15 04:55:59;;;;;;;32.03;17.43;;;3.90;99.90;;;;;;5036634;28;20486;-51
2022/03/15 04:58:25;;;;;;;30.07;18.73;;;3.90;99.90;;;;;;5051364;28;20047;-50
2022/03/15 05:00:51;;;;;;;35.60;20.42;;;4.00;99.90;;;;;;5052366;28;20409;-53
2022/03/15 05:03:17;;;;;;;43.10;23.97;;;4.00;99.90;;;;;;5046905;28;20049;-53
2022/03/15 05:05:44;;;;;;;38.80;22.73;;;4.10;99.90;;;;;;5041378;28;20341;-51
2022/03/15 05:08:10;;;;;;;32.08;18.30;;;4.10;99.90;;;;;;5050421;28;20075;-54
2022/03/15 05:13:20;;;;;;;23.27;13.73;;;4.20;99.90;;;;;;5034958;28;20504;-54
2022/03/15 05:15:47;;;;;;;23.38;13.40;;;4.10;99.90;;;;;;5037917;28;20099;-54
2022/03/15 05:18:13;;;;;;;23.90;14.23;;;4.10;99.90;;;;;;5041227;28;20068;-53
2022/03/15 05:20:38;;;;;;;40.47;18.60;;;4.10;99.90;;;;;;5051396;28;20041;-52
2022/03/15 05:23:04;;;;;;;33.77;19.23;;;4.00;99.90;;;;;;5039597;28;20094;-54
2022/03/15 05:25:29;;;;;;;38.50;22.23;;;4.00;99.90;;;;;;5048789;28;20063;-50
2022/03/15 05:27:55;;;;;;;41.37;23.83;;;4.00;99.90;;;;;;5033090;28;20052;-54
2022/03/15 05:30:20;;;;;;;47.53;25.50;;;4.00;99.90;;;;;;5036969;28;20044;-54
2022/03/15 05:32:46;;;;;;;41.77;21.70;;;4.10;99.90;;;;;;5035567;28;20033;-53
2022/03/15 05:35:12;;;;;;;39.07;21.87;;;4.10;99.90;;;;;;5039112;28;20498;-53
2022/03/15 05:37:37;;;;;;;36.57;22.60;;;4.10;99.90;;;;;;5047141;28;20045;-49
2022/03/15 05:40:04;;;;;;;39.10;23.35;;;4.20;99.90;;;;;;5044902;28;20044;-49
2022/03/15 05:42:29;;;;;;;;;;;4.20;99.90;;;;;;5034304;28;20045;-50
2022/03/15 05:44:55;;;;;;;46.83;27.70;;;4.20;99.90;;;;;;5033510;28;20029;-48
2022/03/15 05:47:21;;;;;;;49.72;28.90;;;4.30;99.90;;;;;;5036892;28;20499;-54
2022/03/15 05:49:47;;;;;;;52.97;30.67;;;4.30;99.90;;;;;;5035596;28;20399;-54
2022/03/15 05:52:12;;;;;;;55.10;29.87;;;4.40;99.90;;;;;;5038914;28;20034;-52
2022/03/15 05:54:38;;;;;;;60.27;32.30;;;4.40;99.90;;;;;;5044251;28;20029;-52
2022/03/15 05:57:04;;;;;;;48.77;30.20;;;4.50;99.90;;;;;;5050710;28;20134;-52
2022/03/15 05:59:29;;;;;;;50.10;30.33;;;4.50;99.90;;;;;;5051541;28;20283;-54
2022/03/15 06:01:55;;;;;;;48.83;29.20;;;4.60;99.90;;;;;;5043604;28;20045;-54
2022/03/15 06:04:25;;;;;;;52.07;29.60;;;4.60;99.90;;;;;;5033654;28;20288;-53
2022/03/15 06:06:51;;;;;;;51.25;29.92;;;4.60;99.90;;;;;;5037913;28;20959;-54
2022/03/15 06:09:17;;;;;;;47.33;30.40;;;4.60;99.90;;;;;;5051697;28;20037;-50
2022/03/15 06:11:43;;;;;;;50.50;30.85;;;4.60;99.90;;;;;;5043321;28;20102;-53
2022/03/15 06:14:09;;;;;;;54.33;32.80;;;4.60;99.90;;;;;;5050863;28;20039;-54
2022/03/15 06:16:34;;;;;;;53.70;32.42;;;4.70;99.90;;;;;;5046947;28;20033;-52
2022/03/15 06:19:01;;;;;;;55.10;33.93;;;4.70;99.90;;;;;;5048467;28;20053;-53
2022/03/15 06:21:26;;;;;;;59.55;34.70;;;4.70;99.90;;;;;;5043207;28;20513;-53
2022/03/15 06:23:52;;;;;;;52.20;31.30;;;4.80;99.90;;;;;;5049602;28;20038;-54
2022/03/15 06:26:20;;;;;;;52.50;32.63;;;4.80;99.90;;;;;;5034368;28;20044;-53
2022/03/15 06:28:45;;;;;;;52.95;32.50;;;4.80;99.90;;;;;;5036618;28;20079;-52
2022/03/15 06:31:13;;;;;;;59.83;33.90;;;4.80;99.90;;;;;;5040862;28;20057;-54
2022/03/15 06:33:39;;;;;;;65.60;36.47;;;4.80;99.90;;;;;;5039097;28;20041;-52
2022/03/15 06:36:11;;;;;;;69.47;37.22;;;4.90;99.90;;;;;;5041091;28;20444;-54
2022/03/15 06:38:43;;;;;;;65.03;37.45;;;4.90;99.90;;;;;;5040306;28;20102;-53
2022/03/15 06:41:11;;;;;;;73.68;42.35;;;4.90;99.90;;;;;;5045942;28;20582;-51
2022/03/15 06:43:39;;;;;;;67.43;41.03;;;5.00;99.90;;;;;;5045475;28;20046;-54
2022/03/15 06:46:05;;;;;;;69.78;41.17;;;5.00;99.90;;;;;;5048223;28;20037;-54
2022/03/15 06:48:31;;;;;;;74.63;44.70;;;5.10;99.90;;;;;;5032887;28;20084;-54
2022/03/15 06:50:57;;;;;;;73.00;43.53;;;5.20;99.90;;;;;;5044596;28;20457;-54
2022/03/15 06:53:22;;;;;;;71.63;41.67;;;5.30;99.90;;;;;;5051173;28;20337;-53
2022/03/15 06:55:48;;;;;;;62.37;41.03;;;5.40;99.90;;;;;;5039424;28;20482;-54
2022/03/15 06:58:14;;;;;;;69.83;39.33;;;5.50;99.90;;;;;;5042268;28;20041;-54
2022/03/15 07:00:40;;;;;;;73.32;43.70;;;5.50;99.90;;;;;;5039055;28;20045;-54
2022/03/15 07:03:06;;;;;;;49.03;30.02;;;5.60;99.90;;;;;;5049623;28;20036;-54
2022/03/15 07:05:31;;;;;;;52.23;32.03;;;5.60;99.90;;;;;;5039139;28;20043;-54
2022/03/15 07:07:57;;;;;;;56.35;29.60;;;5.70;99.90;;;;;;5047178;28;20040;-53
2022/03/15 07:10:23;;;;;;;56.75;31.75;;;5.80;99.90;;;;;;5050437;28;20048;-55
2022/03/15 07:12:48;;;;;;;54.73;34.43;;;5.80;99.90;;;;;;5038533;28;20137;-55
2022/03/15 07:15:16;;;;;;;63.63;40.17;;;5.90;99.90;;;;;;5049593;28;20033;-54
2022/03/15 07:17:53;;;;;;;60.03;36.97;;;5.90;99.90;;;;;;5041821;28;20073;-54
2022/03/15 07:20:19;;;;;;;59.20;37.60;;;6.00;99.90;;;;;;5045267;28;20060;-54
2022/03/15 07:22:45;;;;;;;;;;;6.00;99.90;;;;;;5034783;28;20052;-53
2022/03/15 07:25:10;;;;;;;60.05;35.95;;;6.00;99.90;;;;;;5043507;28;19917;-54
2022/03/15 07:27:36;;;;;;;57.63;37.00;;;6.00;99.90;;;;;;5035971;28;20502;-54
2022/03/15 07:30:03;;;;;;;56.90;36.85;;;6.00;99.90;;;;;;5046890;28;20161;-52
2022/03/15 07:32:29;;;;;;;57.55;37.17;;;6.00;99.90;;;;;;5029280;28;20049;-55
2022/03/15 07:34:54;;;;;;;60.03;37.73;;;6.00;99.90;;;;;;5040807;28;20048;-55
2022/03/15 07:37:20;;;;;;;53.37;37.53;;;6.10;99.90;;;;;;5036746;28;20073;-53
2022/03/15 07:39:46;;;;;;;54.72;36.65;;;6.10;99.90;;;;;;5036725;28;20502;-54
2022/03/15 07:42:12;;;;;;;55.40;35.78;;;6.10;99.90;;;;;;5038859;28;20155;-54
2022/03/15 07:44:38;;;;;;;64.82;37.45;;;6.20;99.90;;;;;;5035631;28;20507;-51
2022/03/15 07:47:04;;;;;;;;;;;6.20;99.90;;;;;;5028123;28;20154;-54
2022/03/15 07:49:29;;;;;;;55.33;31.88;;;6.20;99.90;;;;;;5031213;28;20008;-52
2022/03/15 07:51:55;;;;;;;45.30;30.67;;;6.20;99.90;;;;;;5039523;28;20417;-52
2022/03/15 07:54:21;;;;;;;52.67;31.53;;;6.30;99.90;;;;;;5037441;28;20029;-54
2022/03/15 07:56:47;;;;;;;47.67;32.63;;;6.30;99.90;;;;;;5041848;28;20112;-51
2022/03/15 07:59:12;;;;;;;54.47;31.13;;;6.30;99.90;;;;;;5028478;28;20044;-53
2022/03/15 08:01:38;;;;;;;48.00;29.08;;;6.40;99.90;;;;;;5037608;28;20033;-52
2022/03/15 08:04:05;;;;;;;52.22;33.45;;;6.40;99.90;;;;;;5040519;28;20036;-53
2022/03/15 08:06:31;;;;;;;55.05;33.95;;;6.50;99.90;;;;;;5034664;28;20250;-54
2022/03/15 08:08:58;;;;;;;52.80;32.27;;;6.50;99.90;;;;;;5029583;28;20048;-52
2022/03/15 08:11:25;;;;;;;51.00;32.35;;;6.50;99.90;;;;;;5035538;28;20488;-51
2022/03/15 08:13:53;;;;;;;49.97;32.08;;;6.50;99.90;;;;;;5033259;28;20603;-55
2022/03/15 08:16:21;;;;;;;53.08;33.17;;;6.60;99.90;;;;;;5041551;28;20040;-54
2022/03/15 08:18:46;;;;;;;51.40;31.17;;;6.60;99.90;;;;;;5044294;28;20048;-54
2022/03/15 08:21:12;;;;;;;51.33;32.07;;;6.60;99.90;;;;;;5043074;28;20041;-50
2022/03/15 08:23:38;;;;;;;52.05;32.63;;;6.70;99.90;;;;;;5044190;28;20048;-54
2022/03/15 08:26:03;;;;;;;42.97;30.40;;;6.70;99.90;;;;;;5028700;28;20273;-53
2022/03/15 08:28:29;;;;;;;44.23;31.70;;;6.70;99.90;;;;;;5034536;28;20295;-51
2022/03/15 08:30:55;;;;;;;45.73;31.37;;;6.70;99.90;;;;;;5044288;28;20536;-50
2022/03/15 08:33:22;;;;;;;46.07;31.77;;;6.80;99.90;;;;;;5042182;28;20406;-51
2022/03/15 08:35:48;;;;;;;53.65;35.50;;;6.80;99.90;;;;;;5034071;28;20292;-51
2022/03/15 08:38:14;;;;;;;47.28;33.55;;;6.80;99.90;;;;;;5029121;28;20044;-54
2022/03/15 08:40:39;;;;;;;52.10;34.40;;;6.80;99.90;;;;;;5038274;28;20053;-51
2022/03/15 08:43:06;;;;;;;49.50;35.50;;;6.80;99.90;;;;;;5032950;28;20045;-51
2022/03/15 08:45:31;;;;;;;56.28;34.97;;;6.80;99.90;;;;;;5029464;28;20049;-55
2022/03/15 08:47:57;;;;;;;56.03;35.83;;;6.90;99.90;;;;;;5033812;28;20044;-52
2022/03/15 08:50:22;;;;;;;48.60;34.50;;;6.90;99.90;;;;;;5041816;28;20554;-54
2022/03/15 08:52:48;;;;;;;55.03;37.00;;;6.90;99.90;;;;;;5040011;28;20319;-51
2022/03/15 08:55:15;;;;;;;52.67;35.72;;;6.90;99.90;;;;;;5029920;28;20502;-49
2022/03/15 08:57:40;;;;;;;;;;;6.90;99.90;;;;;;5030831;28;20074;-54
2022/03/15 09:00:09;;;;;;;50.22;36.10;;;6.90;99.90;;;;;;5031740;28;19925;-53
2022/03/15 09:02:34;;;;;;;54.97;37.70;;;6.90;99.90;;;;;;5031053;28;20044;-54
2022/03/15 09:05:00;;;;;;;53.70;35.77;;;6.90;99.90;;;;;;5030584;28;20041;-54
2022/03/15 09:07:27;;;;;;;49.50;33.53;;;7.00;99.90;;;;;;5037588;28;20041;-53
2022/03/15 09:09:53;;;;;;;55.30;37.15;;;7.00;99.90;;;;;;5035964;28;20049;-52
2022/03/15 09:12:18;;;;;;;50.35;34.10;;;7.00;99.90;;;;;;5043554;28;20552;-53
2022/03/15 09:14:44;;;;;;;53.57;36.40;;;7.00;99.90;;;;;;5025865;28;20030;-52
2022/03/15 09:17:10;;;;;;;45.20;31.88;;;7.10;99.90;;;;;;5029320;28;20033;-49
2022/03/15 09:19:36;;;;;;;49.37;35.90;;;7.10;99.90;;;;;;5027593;28;20103;-49
2022/03/15 09:22:02;;;;;;;54.17;35.75;;;7.10;99.90;;;;;;5031515;28;20047;-53
2022/03/15 09:24:29;;;;;;;53.10;34.90;;;7.20;99.90;;;;;;5043323;28;20429;-49
2022/03/15 09:26:55;;;;;;;49.08;35.08;;;7.20;99.90;;;;;;5027342;28;20466;-51
2022/03/15 09:29:20;;;;;;;49.43;33.93;;;7.20;99.90;;;;;;5028613;28;20319;-50
2022/03/15 09:31:46;;;;;;;45.37;33.27;;;7.30;99.90;;;;;;5030983;28;20056;-51
2022/03/15 09:34:12;;;;;;;43.73;32.00;;;7.30;99.90;;;;;;5029012;28;20477;-53
2022/03/15 09:36:37;;;;;;;50.83;36.38;;;7.30;99.90;;;;;;5039326;28;20033;-49
2022/03/15 09:39:07;;;;;;;51.78;35.75;;;7.30;99.90;;;;;;5047084;28;20768;-51
2022/03/15 09:41:36;;;;;;;49.17;34.83;;;7.40;99.90;;;;;;5035306;28;20048;-50
2022/03/15 09:44:04;;;;;;;49.40;34.38;;;7.40;99.90;;;;;;5029503;28;20049;-52
2022/03/15 09:46:31;;;;;;;39.72;32.28;;;7.50;99.90;;;;;;5035598;28;20061;-50
2022/03/15 09:48:58;;;;;;;47.47;32.28;;;7.60;99.90;;;;;;5026038;28;20506;-54
2022/03/15 09:51:27;;;;;;;40.17;32.65;;;7.60;99.90;;;;;;5034152;28;20033;-51
2022/03/15 09:53:55;;;;;;;43.15;32.35;;;7.70;99.90;;;;;;5047092;28;20360;-49
2022/03/15 09:56:21;;;;;;;41.05;31.05;;;7.70;99.90;;;;;;5037826;28;20036;-55
2022/03/15 09:58:47;;;;;;;44.37;34.07;;;7.70;99.90;;;;;;5047025;28;20033;-52
2022/03/15 10:01:17;;;;;;;40.75;31.85;;;7.80;99.90;;;;;;5034264;28;20045;-49
2022/03/15 10:03:42;;;;;;;43.95;33.50;;;7.80;99.90;;;;;;5027191;28;20064;-54
2022/03/15 10:06:08;;;;;;;42.67;31.80;;;7.90;99.90;;;;;;5031317;28;20041;-51
2022/03/15 10:08:34;;;;;;;37.47;31.27;;;7.90;99.90;;;;;;5045711;28;20306;-49
2022/03/15 10:11:00;;;;;;;;;;;8.00;99.90;;;;;;5046157;28;20421;-51
2022/03/15 10:13:25;;;;;;;39.95;30.15;;;8.00;99.90;;;;;;5046839;28;20224;-50
2022/03/15 10:16:03;;;;;;;40.37;30.37;;;8.10;99.90;;;;;;5030686;28;20040;-55
2022/03/15 10:18:29;;;;;;;41.08;30.35;;;8.10;99.90;;;;;;5039559;28;20253;-50
2022/03/15 10:20:55;;;;;;;44.47;31.33;;;8.20;99.90;;;;;;5046488;28;20047;-52
2022/03/15 10:23:29;;;;;;;40.40;28.95;;;8.20;99.90;;;;;;5038520;28;20132;-50
2022/03/15 10:25:56;;;;;;;42.60;28.50;;;8.20;99.90;;;;;;5029669;28;20088;-49
2022/03/15 10:28:22;;;;;;;44.08;29.58;;;8.20;99.90;;;;;;5029071;28;20038;-52
2022/03/15 10:30:49;;;;;;;36.20;29.88;;;8.30;99.90;;;;;;5038067;28;20407;-51
2022/03/15 10:33:17;;;;;;;38.42;31.50;;;8.30;99.90;;;;;;5035176;28;20033;-52
2022/03/15 10:35:45;;;;;;;41.25;29.55;;;8.40;99.90;;;;;;5036292;28;20107;-55
2022/03/15 10:38:11;;;;;;;43.85;27.63;;;8.40;99.90;;;;;;5041981;28;20041;-50
2022/03/15 10:40:39;;;;;;;37.28;28.65;;;8.40;99.90;;;;;;5042833;28;20450;-49
2022/03/15 10:43:07;;;;;;;34.90;28.27;;;8.50;99.90;;;;;;5041545;28;20069;-52
2022/03/15 10:45:34;;;;;;;43.65;31.05;;;8.50;99.90;;;;;;5027296;28;20041;-53
2022/03/15 10:48:01;;;;;;;35.55;26.10;;;8.60;99.90;;;;;;5039602;28;20041;-53
2022/03/15 10:50:30;;;;;;;42.45;25.50;;;8.60;99.90;;;;;;5045437;28;20043;-51
2022/03/15 10:52:56;;;;;;;32.03;26.33;;;8.60;99.90;;;;;;5039510;28;20079;-55
2022/03/15 10:55:28;;;;;;;36.60;26.30;;;8.70;99.90;;;;;;5045688;28;20433;-54
2022/03/15 10:57:55;;;;;;;38.80;26.20;;;8.70;99.90;;;;;;5031502;28;20033;-53
2022/03/15 11:00:27;;;;;;;34.58;24.80;;;8.80;99.90;;;;;;5035912;28;20048;-50
2022/03/15 11:02:54;;;;;;;33.90;25.42;;;8.80;99.90;;;;;;5031322;28;20041;-50
2022/03/15 11:05:34;;;;;;;33.42;23.50;;;8.90;99.90;;;;;;5033331;28;20048;-52
2022/03/15 11:08:08;;;;;;;34.92;25.42;;;8.90;99.90;;;;;;5030554;28;20124;-55
2022/03/15 11:10:35;;;;;;;31.17;22.65;;;9.00;99.90;;;;;;5027549;28;20095;-54
2022/03/15 11:13:11;;;;;;;;;;;9.00;99.90;;;;;;5040906;28;20037;-55
2022/03/15 11:15:48;;;;;;;32.75;21.45;;;9.10;99.90;;;;;;5036530;28;19922;-50
2022/03/15 11:18:16;;;;;;;27.40;21.05;;;9.20;99.90;;;;;;5039459;28;20049;-53
2022/03/15 11:20:44;;;;;;;26.52;21.17;;;9.20;99.90;;;;;;5031946;28;20034;-53
2022/03/15 11:23:12;;;;;;;28.17;20.17;;;9.30;99.90;;;;;;5039890;28;20037;-49
2022/03/15 11:25:48;;;;;;;27.63;20.95;;;9.40;99.90;;;;;;5033001;28;20039;-49
2022/03/15 11:28:19;;;;;;;32.15;21.58;;;9.40;99.90;;;;;;5034533;28;20037;-55
2022/03/15 11:30:45;;;;;;;29.45;20.42;;;9.50;99.90;;;;;;5033782;28;20401;-51
2022/03/15 11:33:11;;;;;;;31.80;21.27;;;9.60;99.90;;;;;;5031117;28;20036;-51
2022/03/15 11:35:39;;;;;;;25.60;19.80;;;9.60;99.90;;;;;;5033262;28;20127;-54
2022/03/15 11:38:09;;;;;;;37.75;21.45;;;9.70;99.90;;;;;;5034361;28;20056;-49
2022/03/15 11:40:35;;;;;;;26.80;19.95;;;9.70;99.90;;;;;;5034605;28;20395;-53
2022/03/15 11:43:13;;;;;;;28.15;18.52;;;9.70;99.90;;;;;;5039845;28;20229;-53
2022/03/15 11:45:43;;;;;;;25.23;16.60;;;9.80;99.90;;;;;;5028957;28;20136;-55
2022/03/15 11:48:21;;;;;;;28.10;19.88;;;9.90;99.90;;;;;;5041502;28;20042;-52
2022/03/15 11:51:20;;;;;;;24.70;18.58;;;9.90;99.90;;;;;;5030566;28;20124;-50
2022/03/15 11:54:23;;;;;;;29.23;21.15;;;10.00;99.90;;;;;;5034073;28;20120;-50
2022/03/15 11:56:56;;;;;;;26.83;19.75;;;10.00;99.90;;;;;;5025036;28;20044;-56
2022/03/15 11:59:22;;;;;;;28.77;19.92;;;10.10;99.90;;;;;;5030502;28;20064;-53
2022/03/15 12:02:01;;;;;;;25.70;20.63;;;10.10;99.90;;;;;;5032829;28;20662;-53
2022/03/15 12:04:29;;;;;;;31.80;22.00;;;10.20;99.90;;;;;;5023950;28;20110;-56
2022/03/15 12:06:59;;;;;;;29.73;19.40;;;10.20;99.90;;;;;;5033541;28;20044;-55
2022/03/15 12:09:34;;;;;;;23.48;18.10;;;10.30;99.90;;;;;;5039860;28;20037;-54
2022/03/15 12:12:10;;;;;;;23.08;16.67;;;10.30;99.90;;;;;;5034231;28;20043;-55
2022/03/15 12:14:52;;;;;;;27.42;17.75;;;10.40;99.90;;;;;;5028389;28;20051;-51
2022/03/15 12:17:19;;;;;;;25.38;16.75;;;10.40;99.90;;;;;;5043253;28;20131;-55
2022/03/15 12:19:50;;;;;;;25.88;15.95;;;10.50;99.90;;;;;;5025373;28;20080;-51
2022/03/15 12:22:23;;;;;;;23.92;15.25;;;10.50;99.90;;;;;;5034936;28;20049;-53
2022/03/15 12:25:00;;;;;;;24.00;16.10;;;10.50;99.90;;;;;;5040337;28;20049;-50
2022/03/15 12:27:27;;;;;;;22.57;15.50;;;10.50;99.90;;;;;;5037471;28;20099;-54
2022/03/15 12:29:58;;;;;;;25.88;15.35;;;10.60;99.90;;;;;;5025438;28;20292;-54
2022/03/15 12:32:25;;;;;;;24.48;15.90;;;10.60;99.90;;;;;;5034242;28;20032;-51
2022/03/15 12:34:56;;;;;;;23.35;15.10;;;10.60;99.90;;;;;;5024995;28;20503;-51
2022/03/15 12:37:37;;;;;;;25.35;16.67;;;10.70;99.90;;;;;;5037581;28;20517;-52
2022/03/15 12:40:05;;;;;;;24.50;15.02;;;10.70;99.90;;;;;;5044275;28;20063;-55
2022/03/15 12:42:32;;;;;;;19.08;13.88;;;10.70;99.90;;;;;;5030432;28;20096;-56
2022/03/15 12:45:10;;;;;;;26.05;17.10;;;10.80;99.90;;;;;;5032947;28;20045;-50